Aeroporto :
LOGIN :

Iscrizione | Disclaimer

   EN    FR    IT 

 










Sommario :    VFR   VFR Marginale   IFR   IFR Intensivo   IFR Molto Intensivo
Visibilità : 
Base nubi : 
>= 8 km
>= 3000ft
5 / 8 km
1000 / 3000 ft
1500m / 5 km
500 / 1000 ft
800 / 1500m
200 / 500 ft
< 800m
< 200 ft
Simboli :   Temporali  Nebbia  Neve Forte  Precipitazioni Forti  Vento > 20 kt
SIGMETs :   Varie  Temporali  Ghiacco  Turbolenza  Onda orograficha  Ceneri Vulcaniche






- Altitudine del aeroporto : 468 ft
- Codice IATA : GRO


LEGE - Girona Costa Brava

ULTIMO METAR :
  • 210000Z VRB02KT 5000 1000 BR BCFG NSC 05/05 Q1027

METARs OBSOLETI :
  • 202330Z VRB01KT 5000 1000 BR BCFG NSC 05/05 Q1027
  • 202300Z VRB01KT 5000 1000 BR BCFG NSC 06/05 Q1027
  • 202230Z 00000KT 5000 1000 BCFG NSC 06/05 Q1027
  • 202200Z 00000KT 5000 BR NSC 06/05 Q1026
  • 202130Z 04001KT CAVOK 08/06 Q1026

TAF TAF LEGE
Valido dal 21 a 00 ore il 22 a 00 ore UTC


202300Z 2100/2124 VRB04KT 9999 FEW020 TX19/2113Z TN04/2106Z
TEMPO 2100/2108 3000 BR
PROB30
TEMPO 2100/2107 1000 BCFG BKN008



MetMap, La meteo Aeronautica in un colpo d'occhio ! - Copyright ORBIFLY Dicembre 2007 - Disclaimer

ORBIFLY MET'MAP TEAM :

Programmazione e sviluppo : Alexandra Zaïnal
Concezione : Baudouin d'Aumeries
Aiuto per la programmazione : Marc-Olivier Méhu
Supporto tecnico e logistico : Manuel Goepfert
Aiuto per la traduzione : Arnaldo La Scala

Contatto : metmap@orbifly.com




FONTI E CREDITI :

   NOAA